Time;durP1;ratioP1;P1;durP2;ratioP2;P2;SDS_P1;SDS_P2;PMS_P1;PMS_P2;Temp;Humidity;BMP_temperature;BMP_pressure;BME280_temperature;BME280_humidity;BME280_pressure;Samples;Min_cycle;Max_cycle;Signal;HPM_P1;HPM_P2
2021/12/06 00:01:05;;;;;;;56.88;28.58;;;3.30;99.90;;;;;;4924700;29;20380;-64
2021/12/06 00:03:46;;;;;;;56.30;28.83;;;3.30;99.90;;;;;;4927872;29;20039;-64
2021/12/06 00:06:14;;;;;;;47.50;26.05;;;3.30;99.90;;;;;;4925881;29;20047;-64
2021/12/06 00:08:39;;;;;;;54.53;26.58;;;3.30;99.90;;;;;;4933241;29;20091;-64
2021/12/06 00:11:09;;;;;;;53.65;26.80;;;3.40;99.90;;;;;;4933827;29;20036;-64
2021/12/06 00:13:41;;;;;;;52.03;26.67;;;3.40;99.90;;;;;;4953996;28;20047;-64
2021/12/06 00:16:12;;;;;;;49.65;25.63;;;3.40;99.90;;;;;;4917440;29;20040;-64
2021/12/06 00:18:38;;;;;;;50.78;25.58;;;3.40;99.90;;;;;;4934491;29;20063;-64
2021/12/06 00:21:04;;;;;;;48.58;26.08;;;3.40;99.90;;;;;;4933676;29;20066;-64
2021/12/06 00:23:31;;;;;;;53.22;30.33;;;3.40;99.90;;;;;;4928780;29;20044;-64
2021/12/06 00:25:56;;;;;;;51.40;26.65;;;3.40;99.90;;;;;;4934107;29;20035;-64
2021/12/06 00:28:23;;;;;;;52.25;25.80;;;3.40;99.90;;;;;;4933700;29;20439;-64
2021/12/06 00:30:49;;;;;;;43.55;22.85;;;3.40;99.90;;;;;;4934478;29;20099;-64
2021/12/06 00:33:14;;;;;;;56.60;27.67;;;3.30;99.90;;;;;;4933490;29;20047;-64
2021/12/06 00:35:40;;;;;;;57.83;27.70;;;3.20;99.90;;;;;;4934062;29;20023;-64
2021/12/06 00:38:05;;;;;;;51.83;26.45;;;3.30;99.90;;;;;;4933598;29;20576;-64
2021/12/06 00:40:35;;;;;;;51.38;28.20;;;3.20;99.90;;;;;;4933696;29;20023;-64
2021/12/06 00:43:01;;;;;;;53.10;26.50;;;3.20;99.90;;;;;;4934142;29;20035;-64
2021/12/06 00:45:27;;;;;;;49.75;25.73;;;3.20;99.90;;;;;;4933920;29;20034;-64
2021/12/06 00:47:53;;;;;;;46.28;24.63;;;3.20;99.90;;;;;;4935307;29;20027;-64
2021/12/06 00:50:22;;;;;;;54.58;25.15;;;3.20;99.90;;;;;;4933809;29;20059;-64
2021/12/06 00:52:48;;;;;;;48.55;25.48;;;3.20;99.90;;;;;;4933508;29;20091;-64
2021/12/06 00:55:15;;;;;;;51.75;28.45;;;3.20;99.90;;;;;;4934433;29;20094;-64
2021/12/06 00:57:41;;;;;;;48.28;26.25;;;3.20;99.90;;;;;;4933072;29;20504;-64
2021/12/06 01:00:15;;;;;;;53.42;28.73;;;3.10;99.90;;;;;;4933920;29;20039;-64
2021/12/06 01:02:41;;;;;;;50.40;27.63;;;3.10;99.90;;;;;;4933074;28;20034;-64
2021/12/06 01:05:07;;;;;;;46.60;25.20;;;3.10;99.90;;;;;;4932340;29;20203;-64
2021/12/06 01:07:33;;;;;;;47.88;25.85;;;3.10;99.90;;;;;;4933366;28;20553;-64
2021/12/06 01:09:59;;;;;;;46.60;24.55;;;3.10;99.90;;;;;;4933794;29;20523;-64
2021/12/06 01:12:24;;;;;;;41.65;22.75;;;3.10;99.90;;;;;;4932755;29;20403;-63
2021/12/06 01:14:50;;;;;;;46.13;23.80;;;3.10;99.90;;;;;;4934154;29;20577;-64
2021/12/06 01:17:16;;;;;;;48.40;26.13;;;3.10;99.90;;;;;;4932873;29;20039;-64
2021/12/06 01:19:42;;;;;;;47.72;25.13;;;3.10;99.90;;;;;;4933903;29;20486;-64
2021/12/06 01:22:28;;;;;;;43.78;23.98;;;3.10;99.90;;;;;;4931413;29;20040;-64
2021/12/06 01:24:59;;;;;;;44.50;23.67;;;3.10;99.90;;;;;;4934163;29;20040;-64
2021/12/06 01:27:42;;;;;;;43.83;23.13;;;3.10;99.90;;;;;;4932493;29;20123;-64
2021/12/06 01:40:54;;;;;;;38.03;21.43;;;3.10;99.90;;;;;;4932467;29;20098;-64
2021/12/06 01:43:19;;;;;;;40.30;21.65;;;3.10;99.90;;;;;;4933164;29;20854;-64
2021/12/06 01:45:45;;;;;;;42.65;22.83;;;3.10;99.90;;;;;;4933635;29;20028;-63
2021/12/06 01:48:10;;;;;;;37.58;22.35;;;3.10;99.90;;;;;;4937494;28;20059;-64
2021/12/06 01:50:37;;;;;;;35.72;20.88;;;3.00;99.90;;;;;;4933024;29;20055;-63
2021/12/06 01:53:06;;;;;;;40.25;21.73;;;3.10;99.90;;;;;;4932314;29;20043;-64
2021/12/06 01:55:34;;;;;;;35.53;19.75;;;3.10;99.90;;;;;;4932496;29;20094;-64
2021/12/06 01:58:01;;;;;;;32.83;20.10;;;3.10;99.80;;;;;;4931753;29;20086;-64
2021/12/06 02:00:41;;;;;;;33.97;19.95;;;3.10;99.80;;;;;;4932219;29;20534;-64
2021/12/06 02:03:07;;;;;;;34.53;21.00;;;3.10;99.70;;;;;;4933514;29;20032;-64
2021/12/06 02:05:35;;;;;;;33.50;19.73;;;3.00;99.60;;;;;;4936103;29;20116;-63
2021/12/06 02:08:01;;;;;;;36.22;20.17;;;3.00;99.50;;;;;;4938746;29;20032;-63
2021/12/06 02:10:27;;;;;;;35.75;19.63;;;2.90;99.50;;;;;;4941696;29;20038;-63
2021/12/06 02:12:54;;;;;;;35.65;20.08;;;2.90;99.40;;;;;;4943827;29;20048;-64
2021/12/06 02:15:39;;;;;;;35.05;19.38;;;2.90;99.40;;;;;;4943319;29;20023;-63
2021/12/06 02:18:12;;;;;;;38.13;20.73;;;2.90;99.40;;;;;;4941956;29;20040;-63
2021/12/06 02:20:57;;;;;;;36.42;20.00;;;2.80;99.30;;;;;;4942100;29;20035;-63
2021/12/06 02:23:22;;;;;;;35.10;21.42;;;2.80;99.30;;;;;;4936334;29;20130;-63
2021/12/06 02:25:48;;;;;;;42.20;22.90;;;2.70;99.30;;;;;;4936950;29;20082;-63
2021/12/06 02:28:14;;;;;;;38.67;22.13;;;2.70;99.30;;;;;;4935700;29;20039;-63
2021/12/06 02:30:39;;;;;;;35.47;20.55;;;2.70;99.30;;;;;;4935882;29;20097;-63
2021/12/06 02:33:05;;;;;;;37.00;21.42;;;2.70;99.30;;;;;;4936284;29;20122;-63
2021/12/06 02:35:31;;;;;;;38.28;20.85;;;2.70;99.30;;;;;;4936048;29;20031;-63
2021/12/06 02:37:57;;;;;;;38.90;20.45;;;2.60;99.30;;;;;;4936243;29;20518;-63
2021/12/06 02:40:26;;;;;;;41.47;22.70;;;2.60;99.40;;;;;;4936481;29;20024;-63
2021/12/06 02:42:53;;;;;;;40.25;24.77;;;2.60;99.40;;;;;;4937344;29;20059;-63
2021/12/06 02:45:21;;;;;;;44.40;24.23;;;2.60;99.40;;;;;;4934642;29;20063;-63
2021/12/06 02:47:52;;;;;;;44.50;25.63;;;2.60;99.30;;;;;;4932903;29;20046;-63
2021/12/06 02:50:21;;;;;;;44.00;24.58;;;2.50;99.30;;;;;;4931593;29;20610;-62
2021/12/06 02:52:46;;;;;;;45.83;26.00;;;2.50;99.30;;;;;;4927957;29;20046;-62
2021/12/06 02:55:29;;;;;;;49.20;26.38;;;2.50;99.30;;;;;;4936778;29;20107;-63
2021/12/06 02:57:58;;;;;;;46.33;25.98;;;2.50;99.20;;;;;;4937195;29;20043;-62
2021/12/06 03:00:24;;;;;;;43.55;25.05;;;2.50;99.20;;;;;;4935035;29;20475;-62
2021/12/06 03:02:50;;;;;;;47.42;26.38;;;2.50;99.30;;;;;;4935531;29;20122;-63
2021/12/06 03:05:15;;;;;;;49.83;26.83;;;2.40;99.20;;;;;;4932669;29;20114;-63
2021/12/06 03:07:41;;;;;;;46.72;26.35;;;2.40;99.20;;;;;;4942754;29;20035;-64
2021/12/06 03:10:08;;;;;;;44.22;26.05;;;2.40;99.30;;;;;;4940528;29;20035;-64
2021/12/06 03:12:35;;;;;;;44.78;24.05;;;2.40;99.30;;;;;;4935783;29;20535;-63
2021/12/06 03:15:03;;;;;;;47.50;26.77;;;2.50;99.30;;;;;;4934574;29;20032;-64
2021/12/06 03:17:30;;;;;;;45.40;26.60;;;2.40;99.20;;;;;;4934965;29;20031;-64
2021/12/06 03:19:56;;;;;;;46.65;26.92;;;2.40;99.20;;;;;;4935278;28;20112;-63
2021/12/06 03:22:23;;;;;;;48.47;25.63;;;2.50;99.30;;;;;;4935356;29;20067;-64
2021/12/06 03:24:49;;;;;;;47.58;25.52;;;2.50;99.20;;;;;;4934773;29;20027;-64
2021/12/06 03:27:16;;;;;;;46.97;26.55;;;2.50;99.20;;;;;;4935078;29;20044;-64
2021/12/06 03:29:42;;;;;;;46.42;27.40;;;2.50;99.20;;;;;;4935031;29;20062;-64
2021/12/06 03:32:08;;;;;;;51.08;26.95;;;2.50;99.10;;;;;;4934462;29;20566;-63
2021/12/06 03:34:35;;;;;;;44.92;26.67;;;2.50;99.10;;;;;;4935081;29;20126;-64
2021/12/06 03:37:04;;;;;;;46.85;26.42;;;2.50;99.10;;;;;;4934382;29;20042;-63
2021/12/06 03:39:34;;;;;;;46.22;26.77;;;2.40;99.10;;;;;;4934620;29;20526;-63
2021/12/06 03:42:03;;;;;;;41.13;24.73;;;2.40;99.20;;;;;;4934424;29;20037;-63
2021/12/06 03:44:29;;;;;;;47.15;26.55;;;2.50;99.20;;;;;;4934796;29;20443;-62
2021/12/06 03:47:02;;;;;;;45.83;26.67;;;2.50;99.20;;;;;;4934248;29;20114;-63
2021/12/06 03:49:28;;;;;;;47.75;25.08;;;2.50;99.20;;;;;;4934067;29;20036;-63
2021/12/06 03:51:54;;;;;;;46.83;27.40;;;2.60;99.20;;;;;;4934286;29;20475;-62
2021/12/06 03:54:23;;;;;;;50.67;27.73;;;2.60;99.20;;;;;;4934848;28;20050;-63
2021/12/06 03:56:49;;;;;;;43.22;25.50;;;2.60;99.20;;;;;;4934023;28;20097;-63
2021/12/06 03:59:15;;;;;;;47.58;27.33;;;2.60;99.10;;;;;;4934992;29;20062;-63
2021/12/06 04:01:41;;;;;;;46.78;27.52;;;2.80;99.10;;;;;;4933407;29;20432;-63
2021/12/06 04:04:08;;;;;;;43.55;24.92;;;2.70;99.10;;;;;;4934661;29;20035;-63
2021/12/06 04:06:35;;;;;;;47.92;27.00;;;2.70;99.10;;;;;;4934081;29;20138;-63
2021/12/06 04:09:01;;;;;;;48.45;25.45;;;2.70;99.10;;;;;;4935052;29;20031;-62
2021/12/06 04:11:27;;;;;;;48.03;26.25;;;2.70;99.00;;;;;;4933835;29;20096;-63
2021/12/06 04:13:52;;;;;;;43.85;24.67;;;2.60;99.00;;;;;;4934772;29;20035;-63
2021/12/06 04:16:18;;;;;;;42.05;23.50;;;2.60;99.10;;;;;;4933425;29;20044;-63
2021/12/06 04:18:46;;;;;;;40.95;24.52;;;2.70;99.10;;;;;;4934122;29;20024;-63
2021/12/06 04:21:12;;;;;;;45.00;25.20;;;2.60;99.00;;;;;;4933862;29;20107;-63
2021/12/06 04:23:38;;;;;;;45.42;25.83;;;2.70;99.00;;;;;;4934983;29;20024;-63
2021/12/06 04:26:05;;;;;;;45.58;26.35;;;2.60;99.00;;;;;;4933846;29;20368;-63
2021/12/06 04:28:33;;;;;;;46.05;25.73;;;2.60;99.00;;;;;;4934088;29;20032;-63
2021/12/06 04:30:59;;;;;;;46.75;25.85;;;2.60;99.10;;;;;;4934125;29;20023;-63
2021/12/06 04:33:24;;;;;;;46.20;24.65;;;2.60;99.10;;;;;;4933246;29;20514;-63
2021/12/06 04:35:50;;;;;;;38.13;22.90;;;2.70;99.10;;;;;;4933120;29;20038;-63
2021/12/06 04:38:17;;;;;;;44.72;22.90;;;2.70;99.10;;;;;;4928101;29;20028;-63
2021/12/06 04:40:43;;;;;;;41.63;25.13;;;2.70;99.00;;;;;;4933552;29;20748;-63
2021/12/06 04:43:09;;;;;;;45.47;26.20;;;2.70;99.00;;;;;;4934558;29;20024;-63
2021/12/06 04:45:35;;;;;;;43.85;23.27;;;2.70;98.90;;;;;;4936278;29;20173;-63
2021/12/06 04:48:04;;;;;;;46.70;25.23;;;2.60;98.90;;;;;;4932977;29;20123;-63
2021/12/06 04:50:32;;;;;;;47.70;25.92;;;2.70;99.00;;;;;;4932665;29;20340;-63
2021/12/06 04:53:03;;;;;;;49.15;26.95;;;2.70;99.00;;;;;;4934620;29;20046;-64
2021/12/06 04:55:50;;;;;;;45.67;25.33;;;2.70;99.00;;;;;;4932975;29;20063;-63
2021/12/06 04:58:27;;;;;;;45.05;24.48;;;2.70;99.00;;;;;;4933945;29;20091;-63
2021/12/06 05:01:09;;;;;;;47.05;26.58;;;2.80;99.00;;;;;;4933411;29;20036;-62
2021/12/06 05:03:37;;;;;;;43.85;24.52;;;2.80;99.00;;;;;;4933334;29;20115;-63
2021/12/06 05:06:07;;;;;;;45.25;24.77;;;2.80;99.10;;;;;;4933062;29;20020;-63
2021/12/06 05:08:41;;;;;;;43.03;24.95;;;2.80;99.00;;;;;;4934236;29;20038;-63
2021/12/06 05:11:07;;;;;;;42.88;23.73;;;2.80;99.00;;;;;;4933369;28;20039;-63
2021/12/06 05:13:34;;;;;;;46.97;24.38;;;2.90;99.00;;;;;;4934126;29;20090;-63
2021/12/06 05:16:00;;;;;;;46.80;24.67;;;2.80;98.90;;;;;;4933301;29;20023;-64
2021/12/06 05:18:26;;;;;;;45.90;25.63;;;2.90;98.90;;;;;;4919080;29;20066;-63
2021/12/06 05:20:51;;;;;;;43.90;26.20;;;2.80;98.80;;;;;;4925671;29;20024;-63
2021/12/06 05:23:17;;;;;;;42.70;24.25;;;2.70;98.80;;;;;;4933792;29;20039;-63
2021/12/06 05:25:43;;;;;;;43.40;23.52;;;2.70;98.90;;;;;;4932818;29;20454;-63
2021/12/06 05:28:09;;;;;;;41.50;23.42;;;2.80;98.90;;;;;;4933128;29;20071;-63
2021/12/06 05:30:37;;;;;;;43.78;23.77;;;2.80;98.90;;;;;;4933250;29;20030;-63
2021/12/06 05:33:04;;;;;;;45.05;25.92;;;2.90;99.00;;;;;;4933631;29;20047;-63
2021/12/06 05:35:29;;;;;;;43.53;24.83;;;3.00;99.00;;;;;;4932179;29;20120;-63
2021/12/06 05:37:57;;;;;;;44.00;24.27;;;2.90;98.90;;;;;;4933613;29;20108;-63
2021/12/06 05:40:30;;;;;;;43.47;24.25;;;3.00;98.90;;;;;;4933143;29;20032;-63
2021/12/06 05:42:57;;;;;;;42.25;23.30;;;3.00;98.90;;;;;;4933857;29;20024;-63
2021/12/06 05:45:25;;;;;;;43.30;24.77;;;3.00;98.80;;;;;;4940482;28;20035;-63
2021/12/06 05:47:52;;;;;;;46.30;25.58;;;3.00;98.90;;;;;;4937584;29;20061;-63
2021/12/06 05:50:18;;;;;;;46.97;24.92;;;3.00;98.80;;;;;;4935758;29;20549;-63
2021/12/06 05:52:45;;;;;;;45.75;24.67;;;3.00;98.90;;;;;;4936164;29;20126;-63
2021/12/06 05:55:12;;;;;;;49.20;24.73;;;3.00;98.90;;;;;;4935413;28;20040;-64
2021/12/06 05:57:37;;;;;;;46.70;24.80;;;3.10;98.90;;;;;;4935509;29;20042;-64
2021/12/06 06:00:10;;;;;;;46.20;24.45;;;3.10;98.80;;;;;;4936622;29;20043;-64
2021/12/06 06:02:35;;;;;;;51.20;27.50;;;3.00;98.80;;;;;;4937342;29;20042;-64
2021/12/06 06:05:01;;;;;;;38.67;23.20;;;3.10;98.90;;;;;;4935668;29;20031;-64
2021/12/06 06:07:26;;;;;;;42.88;24.20;;;3.10;98.90;;;;;;4936840;29;20028;-64
2021/12/06 06:09:52;;;;;;;45.75;25.50;;;3.10;98.80;;;;;;4950341;29;20175;-64
2021/12/06 06:12:17;;;;;;;45.70;26.88;;;3.10;98.80;;;;;;4937096;29;20082;-64
2021/12/06 06:14:43;;;;;;;43.83;23.60;;;3.10;98.90;;;;;;4932207;29;20039;-64
2021/12/06 06:17:12;;;;;;;41.83;24.20;;;3.10;98.90;;;;;;4935616;29;20024;-64
2021/12/06 06:19:44;;;;;;;43.22;25.08;;;3.10;98.90;;;;;;4936355;29;20039;-64
2021/12/06 06:22:10;;;;;;;42.63;24.25;;;3.10;98.90;;;;;;4936561;29;20027;-64
2021/12/06 06:24:35;;;;;;;44.67;24.40;;;3.10;98.90;;;;;;4935601;29;20078;-63
2021/12/06 06:27:01;;;;;;;45.45;25.25;;;3.10;98.90;;;;;;4934453;29;20388;-64
2021/12/06 06:29:27;;;;;;;47.58;24.77;;;3.10;98.90;;;;;;4936308;29;20122;-64
2021/12/06 06:31:52;;;;;;;42.80;22.92;;;3.00;98.90;;;;;;4934699;29;20377;-64
2021/12/06 06:34:19;;;;;;;48.10;26.58;;;3.00;98.90;;;;;;4936641;29;20123;-64
2021/12/06 06:36:46;;;;;;;42.47;24.48;;;3.00;99.00;;;;;;4934757;29;20433;-64
2021/12/06 06:39:11;;;;;;;40.15;23.77;;;3.00;99.00;;;;;;4936842;29;20356;-64
2021/12/06 06:41:37;;;;;;;43.25;23.40;;;2.90;99.10;;;;;;4935892;29;20110;-64
2021/12/06 06:44:04;;;;;;;45.30;24.98;;;2.90;99.10;;;;;;4936366;29;20055;-64
2021/12/06 06:46:30;;;;;;;40.85;23.13;;;2.90;99.20;;;;;;4941799;29;20111;-64
2021/12/06 06:48:56;;;;;;;47.85;24.95;;;2.90;99.20;;;;;;4936005;29;20043;-65
2021/12/06 06:51:23;;;;;;;43.90;25.17;;;2.90;99.20;;;;;;4934859;29;20122;-64
2021/12/06 06:53:49;;;;;;;47.10;26.92;;;2.80;99.20;;;;;;4935425;29;20035;-64
2021/12/06 06:56:14;;;;;;;41.22;24.17;;;2.80;99.30;;;;;;4934962;29;20510;-65
2021/12/06 06:58:40;;;;;;;44.38;23.55;;;2.80;99.30;;;;;;4935872;29;20043;-64
2021/12/06 07:01:05;;;;;;;45.13;24.90;;;2.80;99.50;;;;;;4934435;29;20070;-64
2021/12/06 07:03:32;;;;;;;44.15;26.25;;;2.80;99.50;;;;;;4935339;29;20083;-64
2021/12/06 07:05:59;;;;;;;42.78;24.65;;;2.80;99.50;;;;;;4934788;29;20027;-64
2021/12/06 07:08:25;;;;;;;46.78;27.58;;;2.80;99.40;;;;;;4934529;29;20042;-64
2021/12/06 07:10:51;;;;;;;48.72;25.75;;;2.90;99.50;;;;;;4935567;29;20027;-64
2021/12/06 07:13:17;;;;;;;47.22;26.45;;;2.90;99.50;;;;;;4936105;29;20040;-64
2021/12/06 07:15:43;;;;;;;50.72;27.38;;;2.90;99.40;;;;;;4935043;29;20528;-65
2021/12/06 07:18:08;;;;;;;42.95;24.73;;;2.90;99.50;;;;;;4933060;29;20534;-64
2021/12/06 07:20:34;;;;;;;46.67;25.85;;;2.90;99.50;;;;;;4927622;29;20036;-65
2021/12/06 07:23:03;;;;;;;50.47;26.73;;;2.90;99.50;;;;;;4935163;29;20027;-64
2021/12/06 07:25:29;;;;;;;49.13;25.15;;;2.90;99.60;;;;;;4934076;29;20043;-65
2021/12/06 07:27:57;;;;;;;44.10;24.02;;;3.00;99.60;;;;;;4934722;29;20373;-65
2021/12/06 07:30:22;;;;;;;44.45;24.38;;;3.00;99.60;;;;;;4932760;29;20566;-66
2021/12/06 07:32:51;;;;;;;42.00;23.90;;;3.00;99.60;;;;;;4930821;29;20079;-67
2021/12/06 07:35:17;;;;;;;42.53;22.33;;;3.00;99.60;;;;;;4933470;29;20553;-67
2021/12/06 07:37:43;;;;;;;44.38;24.13;;;3.10;99.60;;;;;;4933906;29;20060;-66
2021/12/06 07:40:11;;;;;;;40.97;22.15;;;3.10;99.60;;;;;;4930052;29;20118;-66
2021/12/06 07:42:37;;;;;;;38.88;23.60;;;3.10;99.70;;;;;;4930493;29;20027;-66
2021/12/06 07:45:04;;;;;;;40.88;23.27;;;3.20;99.70;;;;;;4931549;29;20356;-66
2021/12/06 07:47:29;;;;;;;39.78;22.60;;;3.20;99.60;;;;;;4931677;29;20066;-66
2021/12/06 07:49:55;;;;;;;40.20;23.30;;;3.20;99.60;;;;;;4932550;29;20102;-66
2021/12/06 07:52:21;;;;;;;38.80;22.50;;;3.30;99.60;;;;;;4929403;29;20039;-66
2021/12/06 07:54:46;;;;;;;39.90;22.75;;;3.40;99.60;;;;;;4938512;29;20039;-66
2021/12/06 07:57:13;;;;;;;37.45;20.67;;;3.50;99.70;;;;;;4931132;28;20507;-64
2021/12/06 07:59:39;;;;;;;39.80;21.58;;;3.40;99.60;;;;;;4933723;29;20103;-65
2021/12/06 08:02:06;;;;;;;34.53;21.25;;;3.40;99.60;;;;;;4936114;29;20114;-64
2021/12/06 08:04:32;;;;;;;34.40;21.42;;;3.50;99.60;;;;;;4936525;28;20063;-64
2021/12/06 08:06:58;;;;;;;38.88;22.45;;;3.50;99.60;;;;;;4933347;29;20064;-64
2021/12/06 08:09:23;;;;;;;37.65;19.98;;;3.40;99.60;;;;;;4933982;29;20218;-64
2021/12/06 08:11:49;;;;;;;37.67;21.17;;;3.50;99.60;;;;;;4947822;28;20071;-64
2021/12/06 08:14:15;;;;;;;35.85;21.35;;;3.50;99.50;;;;;;4933037;29;20403;-64
2021/12/06 08:16:43;;;;;;;36.35;19.33;;;3.50;99.50;;;;;;4933715;29;20114;-66
2021/12/06 08:19:10;;;;;;;38.83;22.73;;;3.60;99.60;;;;;;4932705;29;20051;-66
2021/12/06 08:21:36;;;;;;;36.28;22.45;;;3.70;99.80;;;;;;4933425;29;20043;-65
2021/12/06 08:24:02;;;;;;;42.80;22.33;;;3.80;99.90;;;;;;4932083;29;20031;-65
2021/12/06 08:26:32;;;;;;;36.17;20.33;;;3.80;99.80;;;;;;4932021;29;20531;-65
2021/12/06 08:28:58;;;;;;;33.13;19.42;;;3.80;99.40;;;;;;4933102;29;20032;-65
2021/12/06 08:31:24;;;;;;;35.42;19.58;;;3.90;99.40;;;;;;4931963;28;21626;-65
2021/12/06 08:37:12;;;;;;;31.98;18.35;;;3.90;99.20;;;;;;4940776;29;20042;-65
2021/12/06 08:39:39;;;;;;;31.85;19.77;;;4.00;99.30;;;;;;4934876;29;20430;-65
2021/12/06 08:42:05;;;;;;;30.40;17.83;;;4.10;99.40;;;;;;4933291;29;20084;-65
2021/12/06 08:44:31;;;;;;;35.83;19.73;;;4.10;99.40;;;;;;4916714;29;20044;-65
2021/12/06 08:46:57;;;;;;;33.83;19.73;;;4.20;99.40;;;;;;4933015;29;20396;-65
2021/12/06 08:49:22;;;;;;;32.20;19.20;;;4.30;99.30;;;;;;4937175;29;20036;-65
2021/12/06 08:51:53;;;;;;;32.13;19.15;;;4.30;99.20;;;;;;4933607;29;20127;-65
2021/12/06 08:54:19;;;;;;;29.50;18.15;;;4.30;98.90;;;;;;4947113;28;20093;-63
2021/12/06 08:56:47;;;;;;;33.03;19.50;;;4.40;98.90;;;;;;4931883;29;20870;-63
2021/12/06 08:59:14;;;;;;;31.50;17.67;;;4.30;98.90;;;;;;4925553;29;20070;-63
2021/12/06 09:01:41;;;;;;;27.45;17.83;;;4.30;98.90;;;;;;4928338;29;20036;-64
2021/12/06 09:04:11;;;;;;;29.38;17.98;;;4.40;98.80;;;;;;4928085;29;20042;-63
2021/12/06 09:06:37;;;;;;;31.73;18.85;;;4.40;98.70;;;;;;4930383;29;20042;-64
2021/12/06 09:09:07;;;;;;;33.08;18.60;;;4.40;98.80;;;;;;4932661;29;20162;-64
2021/12/06 09:11:33;;;;;;;35.50;19.95;;;4.50;98.80;;;;;;4933103;29;20426;-64
2021/12/06 09:13:59;;;;;;;30.00;18.17;;;4.50;98.70;;;;;;4932980;29;20047;-64
2021/12/06 09:16:24;;;;;;;29.52;17.83;;;4.50;98.50;;;;;;4932299;29;20110;-64
2021/12/06 09:18:50;;;;;;;29.70;17.80;;;4.50;98.30;;;;;;4944465;29;21396;-64
2021/12/06 09:21:18;;;;;;;33.72;18.52;;;4.50;98.30;;;;;;4939564;29;20098;-64
2021/12/06 09:23:44;;;;;;;29.92;17.88;;;4.40;98.00;;;;;;4940350;29;20040;-63
2021/12/06 09:26:10;;;;;;;30.83;19.00;;;4.40;98.10;;;;;;4937692;29;20035;-63
2021/12/06 09:28:36;;;;;;;36.53;20.70;;;4.40;98.10;;;;;;4938060;29;20587;-63
2021/12/06 09:31:04;;;;;;;32.20;18.15;;;4.40;98.10;;;;;;4935186;29;20103;-63
2021/12/06 09:33:31;;;;;;;31.52;18.50;;;4.30;98.00;;;;;;4935901;29;20040;-63
2021/12/06 09:35:59;;;;;;;30.98;17.42;;;4.30;98.00;;;;;;4933305;29;20091;-63
2021/12/06 09:38:34;;;;;;;32.15;17.83;;;4.30;98.10;;;;;;4932421;29;20094;-63
2021/12/06 09:41:00;;;;;;;;;;;4.30;98.00;;;;;;4936031;29;20452;-63
2021/12/06 09:43:25;;;;;;;38.65;18.77;;;4.30;98.10;;;;;;4934533;29;19918;-63
2021/12/06 09:45:53;;;;;;;30.20;18.67;;;4.30;98.10;;;;;;4934181;29;20031;-63
2021/12/06 09:48:19;;;;;;;29.45;18.48;;;4.30;98.20;;;;;;4932412;29;20039;-63
2021/12/06 09:50:52;;;;;;;28.83;17.35;;;4.30;98.20;;;;;;4933596;29;20460;-63
2021/12/06 09:53:21;;;;;;;30.50;18.50;;;4.30;98.10;;;;;;4934257;29;20041;-63
2021/12/06 09:55:50;;;;;;;29.40;17.30;;;4.50;98.20;;;;;;4939874;29;20118;-63
2021/12/06 09:58:16;;;;;;;32.55;19.50;;;4.40;98.20;;;;;;4938907;29;20030;-63
2021/12/06 10:00:46;;;;;;;31.17;17.80;;;4.50;98.00;;;;;;4936611;29;20031;-62
2021/12/06 10:03:15;;;;;;;36.05;20.52;;;4.50;98.10;;;;;;4937242;29;20035;-63
2021/12/06 10:05:42;;;;;;;29.45;17.30;;;4.50;98.00;;;;;;4937455;29;20045;-63
2021/12/06 10:08:10;;;;;;;30.45;18.70;;;4.60;98.10;;;;;;4934255;29;20031;-63
2021/12/06 10:10:37;;;;;;;29.83;18.63;;;4.60;98.10;;;;;;4937571;29;20028;-63
2021/12/06 10:13:03;;;;;;;27.90;16.92;;;4.60;98.00;;;;;;4940048;29;20058;-63
2021/12/06 10:15:29;;;;;;;29.73;17.60;;;4.70;97.90;;;;;;4937738;29;20039;-62
2021/12/06 10:18:01;;;;;;;27.73;16.50;;;4.70;97.90;;;;;;4936981;29;20035;-63
2021/12/06 10:20:28;;;;;;;29.27;17.60;;;4.60;97.90;;;;;;4936634;29;20063;-63
2021/12/06 10:22:54;;;;;;;33.75;18.63;;;4.70;97.90;;;;;;4934624;29;20035;-63
2021/12/06 10:25:33;;;;;;;31.35;17.45;;;4.70;97.70;;;;;;4938112;29;20028;-63
2021/12/06 10:28:04;;;;;;;28.48;17.25;;;4.70;97.80;;;;;;4936067;29;20039;-64
2021/12/06 10:30:38;;;;;;;30.10;18.02;;;4.80;97.70;;;;;;4935025;29;20099;-63
2021/12/06 10:33:10;;;;;;;28.50;17.02;;;4.70;97.70;;;;;;4934086;29;20434;-63
2021/12/06 10:35:41;;;;;;;30.27;16.77;;;4.70;97.80;;;;;;4933153;29;20031;-63
2021/12/06 10:38:07;;;;;;;25.85;15.85;;;4.70;97.70;;;;;;4935114;29;20031;-63
2021/12/06 10:40:36;;;;;;;24.90;15.48;;;4.70;97.70;;;;;;4933226;29;20028;-63
2021/12/06 10:43:06;;;;;;;29.55;16.67;;;4.70;97.70;;;;;;4932024;29;20028;-63
2021/12/06 10:45:42;;;;;;;26.77;16.00;;;4.80;97.70;;;;;;4930380;29;20034;-63
2021/12/06 10:48:07;;;;;;;26.20;16.45;;;4.80;97.70;;;;;;4934630;29;20039;-63
2021/12/06 10:50:48;;;;;;;27.77;16.83;;;4.80;97.70;;;;;;4933617;29;20044;-64
2021/12/06 10:53:16;;;;;;;31.23;16.85;;;4.90;97.70;;;;;;4929647;29;20039;-63
2021/12/06 10:55:43;;;;;;;27.73;16.10;;;5.00;97.60;;;;;;4941891;29;20303;-64
2021/12/06 10:58:13;;;;;;;24.88;14.52;;;5.10;97.60;;;;;;4934582;29;20090;-63
2021/12/06 11:01:07;;;;;;;26.85;15.82;;;5.00;97.50;;;;;;4930220;29;20028;-63
2021/12/06 11:03:47;;;;;;;24.25;15.00;;;5.00;97.30;;;;;;4928398;28;20020;-63
2021/12/06 11:06:30;;;;;;;28.10;15.60;;;4.90;97.30;;;;;;4931657;29;20387;-63
2021/12/06 11:08:58;;;;;;;23.23;12.80;;;4.90;97.00;;;;;;4929506;29;20140;-63
2021/12/06 11:11:31;;;;;;;19.55;11.65;;;4.90;97.10;;;;;;4929886;29;20035;-63
2021/12/06 11:14:07;;;;;;;21.42;12.48;;;4.90;96.90;;;;;;4943098;28;20048;-63
2021/12/06 11:16:35;;;;;;;19.33;11.75;;;4.90;96.90;;;;;;4929654;29;20039;-63
2021/12/06 11:19:05;;;;;;;20.00;11.55;;;4.80;96.60;;;;;;4933556;29;20091;-63
2021/12/06 11:21:38;;;;;;;20.88;12.35;;;4.80;96.70;;;;;;4932373;29;20388;-64
2021/12/06 11:24:09;;;;;;;18.20;11.55;;;4.80;96.70;;;;;;4928682;29;20043;-64
2021/12/06 11:26:43;;;;;;;22.65;13.75;;;4.80;96.70;;;;;;4933759;29;20046;-65
2021/12/06 11:29:16;;;;;;;18.92;11.95;;;4.90;96.60;;;;;;4944504;28;20042;-64
2021/12/06 11:31:48;;;;;;;20.50;12.27;;;4.80;96.60;;;;;;4932743;29;20024;-64
2021/12/06 11:34:14;;;;;;;23.20;13.32;;;4.90;96.60;;;;;;4928821;29;20035;-63
2021/12/06 11:36:41;;;;;;;21.50;11.82;;;4.90;96.60;;;;;;4930977;29;20412;-63
2021/12/06 11:39:14;;;;;;;18.13;11.02;;;4.90;96.50;;;;;;4928280;29;20486;-63
2021/12/06 11:41:45;;;;;;;18.65;10.65;;;5.00;96.60;;;;;;4929759;29;20031;-63
2021/12/06 11:44:21;;;;;;;19.67;11.02;;;5.00;96.60;;;;;;4934980;29;20044;-63
2021/12/06 11:46:52;;;;;;;18.67;11.07;;;5.10;96.60;;;;;;4934200;29;20066;-63
2021/12/06 11:49:27;;;;;;;20.40;12.02;;;5.20;96.50;;;;;;4938271;29;20035;-63
2021/12/06 11:51:53;;;;;;;23.88;12.73;;;5.10;96.40;;;;;;4932763;29;20135;-63
2021/12/06 11:54:19;;;;;;;20.30;11.57;;;5.10;96.40;;;;;;4936098;29;20130;-63
2021/12/06 11:56:48;;;;;;;23.70;12.80;;;5.10;96.40;;;;;;4950541;29;20024;-64
2021/12/06 11:59:16;;;;;;;21.42;12.98;;;5.10;96.30;;;;;;4933886;29;20097;-63
2021/12/06 12:01:53;;;;;;;23.35;12.77;;;5.20;96.40;;;;;;4932314;29;20039;-63
2021/12/06 12:04:22;;;;;;;18.88;11.63;;;5.30;96.30;;;;;;4933322;29;20039;-63
2021/12/06 12:07:01;;;;;;;17.33;11.00;;;5.20;96.30;;;;;;4929468;29;20031;-63
2021/12/06 12:09:32;;;;;;;20.17;11.90;;;5.30;96.20;;;;;;4931026;29;20042;-62
2021/12/06 12:11:59;;;;;;;20.88;11.07;;;5.30;96.20;;;;;;4932465;29;20491;-64
2021/12/06 12:14:49;;;;;;;20.65;12.20;;;5.30;96.20;;;;;;4928913;29;20428;-63
2021/12/06 12:17:18;;;;;;;22.85;12.70;;;5.30;96.10;;;;;;4931667;29;20046;-63
2021/12/06 12:19:46;;;;;;;23.85;12.68;;;5.30;96.10;;;;;;4929950;29;20027;-64
2021/12/06 12:22:12;;;;;;;18.13;11.52;;;5.30;96.00;;;;;;4932558;29;20039;-63
2021/12/06 12:24:42;;;;;;;24.15;12.70;;;5.30;96.10;;;;;;4928719;29;20039;-64
2021/12/06 12:29:42;;;;;;;22.98;12.90;;;5.40;95.90;;;;;;4927215;29;20039;-62
2021/12/06 12:32:08;;;;;;;22.63;12.77;;;5.30;95.90;;;;;;4933036;29;20391;-63
2021/12/06 12:34:37;;;;;;;33.88;17.73;;;5.30;95.80;;;;;;4930599;29;20044;-64
2021/12/06 12:37:05;;;;;;;25.70;15.38;;;5.30;95.80;;;;;;4925533;29;20036;-64
2021/12/06 12:39:31;;;;;;;24.05;14.25;;;5.40;95.80;;;;;;4931710;29;20424;-63
2021/12/06 12:42:00;;;;;;;23.05;13.27;;;5.40;95.80;;;;;;4929374;29;20039;-64
2021/12/06 12:44:44;;;;;;;23.70;12.63;;;5.40;95.70;;;;;;4932004;29;20027;-64
2021/12/06 12:47:19;;;;;;;22.27;12.38;;;5.40;95.70;;;;;;4930754;29;20071;-63
2021/12/06 12:49:51;;;;;;;21.30;12.32;;;5.50;95.70;;;;;;4925439;29;20098;-64
2021/12/06 12:52:40;;;;;;;21.30;13.00;;;5.50;95.70;;;;;;4927115;29;20131;-64
2021/12/06 12:55:20;;;;;;;20.08;12.65;;;5.50;95.70;;;;;;4927889;29;20122;-63
2021/12/06 12:57:46;;;;;;;22.30;13.02;;;5.50;95.60;;;;;;4926701;29;20040;-64
2021/12/06 13:00:24;;;;;;;25.83;12.88;;;5.50;95.60;;;;;;4926961;29;20036;-64